createdAt,value
2022-11-17T00:00:30.419Z,3.50
2022-11-17T00:02:57.200Z,3.37
2022-11-17T00:05:26.452Z,2.80
2022-11-17T00:07:55.239Z,3.43
2022-11-17T00:10:21.999Z,2.63
2022-11-17T00:13:07.283Z,3.07
2022-11-17T00:15:34.026Z,2.57
2022-11-17T00:18:19.343Z,2.93
2022-11-17T00:21:07.173Z,3.00
2022-11-17T00:23:50.231Z,2.50
2022-11-17T00:26:19.081Z,2.70
2022-11-17T00:28:47.978Z,2.77
2022-11-17T00:31:33.321Z,2.97
2022-11-17T00:34:09.016Z,2.70
2022-11-17T00:36:44.224Z,2.40
2022-11-17T00:39:13.822Z,2.57
2022-11-17T00:41:43.041Z,2.60
2022-11-17T00:44:09.965Z,2.63
2022-11-17T00:46:37.348Z,2.50
2022-11-17T00:49:04.882Z,2.40
2022-11-17T00:51:34.201Z,2.60
2022-11-17T00:54:01.255Z,2.50
2022-11-17T00:56:28.199Z,2.27
2022-11-17T00:58:55.049Z,2.47
2022-11-17T01:01:24.578Z,2.30
2022-11-17T01:03:51.489Z,2.33
2022-11-17T01:06:19.690Z,2.30
2022-11-17T01:08:48.959Z,2.33
2022-11-17T01:11:17.518Z,2.30
2022-11-17T01:13:47.302Z,2.27
2022-11-17T01:16:15.683Z,2.97
2022-11-17T01:18:42.854Z,2.50
2022-11-17T01:21:17.005Z,2.70
2022-11-17T01:23:44.286Z,2.60
2022-11-17T01:26:14.382Z,2.50
2022-11-17T01:28:41.404Z,2.40
2022-11-17T01:31:12.851Z,2.43
2022-11-17T01:33:41.993Z,2.30
2022-11-17T01:36:13.461Z,2.40
2022-11-17T01:38:42.454Z,2.40
2022-11-17T01:41:14.541Z,2.47
2022-11-17T01:43:42.535Z,2.70
2022-11-17T01:46:34.610Z,2.20
2022-11-17T01:49:21.391Z,2.43
2022-11-17T01:51:57.487Z,2.53
2022-11-17T01:54:25.288Z,2.57
2022-11-17T01:56:54.263Z,2.77
2022-11-17T01:59:34.374Z,2.43
2022-11-17T02:02:01.409Z,2.60
2022-11-17T02:04:38.003Z,2.50
2022-11-17T02:07:15.664Z,2.53
2022-11-17T02:09:42.438Z,2.77
2022-11-17T02:12:12.789Z,2.67
2022-11-17T02:14:39.868Z,3.10
2022-11-17T02:17:13.049Z,2.70
2022-11-17T02:19:41.896Z,2.50
2022-11-17T02:22:20.573Z,3.00
2022-11-17T02:25:12.244Z,3.30
2022-11-17T02:27:47.835Z,2.30
2022-11-17T02:30:16.740Z,3.00
2022-11-17T02:33:08.254Z,2.53
2022-11-17T02:35:44.052Z,3.03
2022-11-17T02:38:28.663Z,2.60
2022-11-17T02:41:04.208Z,2.63
2022-11-17T02:43:52.806Z,2.87
2022-11-17T02:46:20.575Z,2.97
2022-11-17T02:49:02.115Z,2.60
2022-11-17T02:51:28.836Z,2.57
2022-11-17T02:54:00.717Z,3.27
2022-11-17T02:56:27.525Z,2.80
2022-11-17T02:59:00.429Z,2.97
2022-11-17T03:01:44.971Z,2.87
2022-11-17T03:04:49.998Z,2.37
2022-11-17T03:07:30.118Z,3.00
2022-11-17T03:10:11.327Z,3.13
2022-11-17T03:13:01.590Z,2.97
2022-11-17T03:15:38.222Z,2.53
2022-11-17T03:18:10.362Z,2.90
2022-11-17T03:21:05.764Z,2.70
2022-11-17T03:23:41.522Z,2.70
2022-11-17T03:26:09.832Z,3.00
2022-11-17T03:28:36.545Z,3.00
2022-11-17T03:31:04.178Z,2.80
2022-11-17T03:33:31.109Z,2.40
2022-11-17T03:36:03.846Z,2.40
2022-11-17T03:38:35.338Z,2.90
2022-11-17T03:41:03.186Z,2.57
2022-11-17T03:43:33.139Z,2.93
2022-11-17T03:46:04.158Z,2.70
2022-11-17T03:49:13.600Z,2.80
2022-11-17T03:51:40.420Z,3.10
2022-11-17T03:54:07.366Z,2.90
2022-11-17T03:57:13.202Z,2.70
2022-11-17T03:59:55.793Z,2.60
2022-11-17T04:02:25.254Z,2.80
2022-11-17T04:05:07.124Z,2.90
2022-11-17T04:07:34.994Z,2.47
2022-11-17T04:10:02.053Z,2.67
2022-11-17T04:12:47.426Z,2.63
2022-11-17T04:15:32.916Z,2.90
2022-11-17T04:17:59.830Z,2.97
2022-11-17T04:20:26.519Z,2.40
2022-11-17T04:23:07.727Z,2.53
2022-11-17T04:25:59.626Z,3.03
2022-11-17T04:28:41.290Z,2.70
2022-11-17T04:31:36.439Z,2.60
2022-11-17T04:34:05.630Z,2.67
2022-11-17T04:36:34.061Z,2.70
2022-11-17T04:39:01.360Z,2.77
2022-11-17T04:41:47.531Z,3.10
2022-11-17T04:44:17.985Z,2.40
2022-11-17T04:46:47.287Z,2.73
2022-11-17T04:49:14.977Z,2.20
2022-11-17T04:51:41.832Z,2.60
2022-11-17T04:54:09.221Z,2.77
2022-11-17T04:56:38.261Z,2.43
2022-11-17T04:59:07.281Z,2.97
2022-11-17T05:01:34.211Z,2.30
2022-11-17T05:04:04.743Z,2.40
2022-11-17T05:06:51.857Z,2.33
2022-11-17T05:09:18.666Z,2.60
2022-11-17T05:12:13.860Z,2.30
2022-11-17T05:14:40.567Z,2.53
2022-11-17T05:17:10.834Z,3.00
2022-11-17T05:19:45.520Z,2.70
2022-11-17T05:22:40.520Z,2.30
2022-11-17T05:25:07.624Z,2.40
2022-11-17T05:27:34.423Z,2.80
2022-11-17T05:30:04.576Z,2.80
2022-11-17T05:32:31.265Z,2.70
2022-11-17T05:35:00.270Z,2.60
2022-11-17T05:37:29.453Z,2.40
2022-11-17T05:39:56.159Z,2.70
2022-11-17T05:42:22.890Z,2.70
2022-11-17T05:44:49.696Z,2.80
2022-11-17T05:47:16.671Z,2.53
2022-11-17T05:49:45.589Z,2.63
2022-11-17T05:52:12.317Z,2.30
2022-11-17T05:54:39.029Z,2.60
2022-11-17T05:57:12.048Z,2.13
2022-11-17T05:59:47.047Z,2.57
2022-11-17T06:02:21.047Z,2.63
2022-11-17T06:04:51.399Z,2.80
2022-11-17T06:07:20.899Z,2.40
2022-11-17T06:09:50.173Z,2.40
2022-11-17T06:12:17.177Z,2.70
2022-11-17T06:14:43.879Z,2.57
2022-11-17T06:17:21.801Z,3.00
2022-11-17T06:19:57.863Z,2.77
2022-11-17T06:22:25.706Z,3.20
2022-11-17T06:24:52.426Z,2.53
2022-11-17T06:27:19.122Z,2.80
2022-11-17T06:29:46.929Z,2.67
2022-11-17T06:32:14.703Z,2.63
2022-11-17T06:34:42.586Z,2.47
2022-11-17T06:37:11.332Z,2.80
2022-11-17T06:39:38.072Z,2.60
2022-11-17T06:42:04.905Z,2.30
2022-11-17T06:44:33.778Z,2.70
2022-11-17T06:47:00.595Z,2.60
2022-11-17T06:49:27.657Z,2.47
2022-11-17T06:51:54.487Z,10.53
2022-11-17T06:54:21.171Z,3.07
2022-11-17T06:56:49.721Z,2.40
2022-11-17T06:59:17.147Z,2.67
2022-11-17T07:01:44.055Z,2.37
2022-11-17T07:04:15.798Z,2.40
2022-11-17T07:06:44.979Z,2.70
2022-11-17T07:09:11.673Z,2.57
2022-11-17T07:11:38.368Z,2.43
2022-11-17T07:14:05.062Z,2.70
2022-11-17T07:16:32.778Z,2.70
2022-11-17T07:18:59.677Z,2.70
2022-11-17T07:21:26.418Z,2.43
2022-11-17T07:23:53.186Z,3.40
2022-11-17T07:26:22.381Z,3.03
2022-11-17T07:28:49.145Z,2.90
2022-11-17T07:31:15.966Z,3.00
2022-11-17T07:33:42.707Z,3.70
2022-11-17T07:36:11.056Z,3.70
2022-11-17T07:38:38.975Z,11.20
2022-11-17T07:41:07.017Z,3.33
2022-11-17T07:43:34.484Z,3.93
2022-11-17T07:46:12.175Z,3.93
2022-11-17T07:48:39.347Z,3.50
2022-11-17T07:51:06.421Z,4.13
2022-11-17T07:53:35.869Z,3.60
2022-11-17T07:56:09.847Z,3.77
2022-11-17T07:58:37.579Z,3.83
2022-11-17T08:01:05.970Z,4.10
2022-11-17T08:03:32.840Z,4.07
2022-11-17T08:06:05.746Z,4.10
2022-11-17T08:08:35.319Z,4.03
2022-11-17T08:11:03.664Z,4.50
2022-11-17T08:13:30.497Z,4.20
2022-11-17T08:15:57.627Z,3.93
2022-11-17T08:18:24.437Z,4.07
2022-11-17T08:20:51.693Z,4.40
2022-11-17T08:23:20.776Z,4.43
2022-11-17T08:25:50.080Z,4.47
2022-11-17T08:28:16.802Z,4.47
2022-11-17T08:30:44.379Z,4.40
2022-11-17T08:33:11.103Z,4.80
2022-11-17T08:35:37.939Z,4.40
2022-11-17T08:38:04.691Z,5.10
2022-11-17T08:40:31.439Z,4.47
2022-11-17T08:43:01.292Z,4.50
2022-11-17T08:45:30.616Z,4.47
2022-11-17T08:47:57.433Z,4.40
2022-11-17T08:50:24.221Z,4.70
2022-11-17T08:52:52.068Z,4.63
2022-11-17T08:55:18.949Z,4.40
2022-11-17T08:57:45.746Z,4.43
2022-11-17T09:00:12.936Z,4.10
2022-11-17T09:02:39.754Z,4.20
2022-11-17T09:05:07.090Z,4.33
2022-11-17T09:07:35.043Z,4.70
2022-11-17T09:10:02.285Z,4.53
2022-11-17T09:12:31.268Z,4.40
2022-11-17T09:14:58.030Z,4.60
2022-11-17T09:17:24.775Z,4.87
2022-11-17T09:19:53.751Z,5.30
2022-11-17T09:22:20.750Z,4.63
2022-11-17T09:24:47.458Z,5.20
2022-11-17T09:27:16.543Z,4.80
2022-11-17T09:29:45.508Z,4.60
2022-11-17T09:32:13.503Z,5.00
2022-11-17T09:34:44.314Z,5.40
2022-11-17T09:37:12.414Z,4.83
2022-11-17T09:39:39.192Z,8.47
2022-11-17T09:42:08.248Z,5.50
2022-11-17T09:44:40.265Z,5.30
2022-11-17T09:47:10.037Z,5.10
2022-11-17T09:50:17.865Z,4.90
2022-11-17T09:52:54.151Z,5.27
2022-11-17T09:55:33.950Z,5.37
2022-11-17T09:58:27.763Z,5.53
2022-11-17T10:00:54.486Z,5.07
2022-11-17T10:03:22.950Z,5.17
2022-11-17T10:05:49.935Z,5.53
2022-11-17T10:08:42.031Z,5.83
2022-11-17T10:11:31.687Z,6.47
2022-11-17T10:14:20.258Z,6.37
2022-11-17T10:16:53.818Z,6.40
2022-11-17T10:19:27.584Z,6.50
2022-11-17T10:22:05.846Z,5.97
2022-11-17T10:24:33.248Z,6.50
2022-11-17T10:27:00.102Z,6.33
2022-11-17T10:29:29.401Z,6.30
2022-11-17T10:31:56.135Z,6.70
2022-11-17T10:34:40.939Z,6.57
2022-11-17T10:37:31.854Z,6.73
2022-11-17T10:40:42.628Z,7.47
2022-11-17T10:43:12.155Z,7.10
2022-11-17T10:45:58.758Z,6.60
2022-11-17T10:48:32.959Z,6.53
2022-11-17T10:51:03.356Z,7.10
2022-11-17T10:53:42.826Z,7.20
2022-11-17T10:56:19.011Z,7.10
2022-11-17T10:59:12.658Z,7.60
2022-11-17T11:01:44.458Z,7.70
2022-11-17T11:04:46.689Z,7.00
2022-11-17T11:07:20.722Z,8.23
2022-11-17T11:10:02.806Z,7.73
2022-11-17T11:12:48.291Z,7.37
2022-11-17T11:15:22.850Z,7.23
2022-11-17T11:17:49.966Z,7.07
2022-11-17T11:20:18.336Z,7.17
2022-11-17T11:23:05.956Z,7.07
2022-11-17T11:25:43.924Z,6.57
2022-11-17T11:28:33.451Z,6.60
2022-11-17T11:31:07.955Z,6.50
2022-11-17T11:33:39.533Z,6.57
2022-11-17T11:36:19.306Z,5.90
2022-11-17T11:39:01.115Z,7.83
2022-11-17T11:41:36.829Z,6.27
2022-11-17T11:44:33.932Z,6.87
2022-11-17T11:47:19.576Z,6.77
2022-11-17T11:49:49.435Z,6.40
2022-11-17T11:52:21.364Z,6.33
2022-11-17T11:54:51.375Z,6.40
2022-11-17T11:57:26.232Z,6.60
2022-11-17T12:00:03.760Z,6.47
2022-11-17T12:02:40.411Z,6.83
2022-11-17T12:05:37.308Z,6.03
2022-11-17T12:08:10.220Z,5.93
2022-11-17T12:10:57.902Z,5.83
2022-11-17T12:13:26.721Z,6.20
2022-11-17T12:16:16.534Z,6.07
2022-11-17T12:18:43.470Z,5.70
2022-11-17T12:21:15.943Z,5.83
2022-11-17T12:24:04.514Z,6.03
2022-11-17T12:26:34.922Z,5.57
2022-11-17T12:29:22.027Z,5.50
2022-11-17T12:31:52.503Z,5.80
2022-11-17T12:34:30.689Z,5.90
2022-11-17T12:37:13.265Z,6.30
2022-11-17T12:39:54.780Z,5.70
2022-11-17T12:42:21.983Z,6.20
2022-11-17T12:45:05.703Z,6.00
2022-11-17T12:47:36.337Z,5.83
2022-11-17T12:50:18.592Z,5.80
2022-11-17T12:53:00.210Z,6.10
2022-11-17T12:55:35.511Z,5.57
2022-11-17T12:58:39.925Z,5.67
2022-11-17T13:01:16.040Z,5.27
2022-11-17T13:03:49.685Z,5.63
2022-11-17T13:09:08.092Z,5.50
2022-11-17T13:11:37.436Z,5.50
2022-11-17T13:14:11.375Z,5.10
2022-11-17T13:16:49.257Z,7.00
2022-11-17T13:19:32.787Z,5.33
2022-11-17T13:22:14.949Z,5.00
2022-11-17T13:24:45.721Z,5.80
2022-11-17T13:27:27.639Z,5.17
2022-11-17T13:30:15.264Z,4.73
2022-11-17T13:32:42.414Z,5.30
2022-11-17T13:35:32.770Z,5.07
2022-11-17T13:38:04.628Z,5.17
2022-11-17T13:40:31.663Z,5.30
2022-11-17T13:42:58.459Z,5.10
2022-11-17T13:45:27.389Z,4.60
2022-11-17T13:47:56.440Z,5.50
2022-11-17T13:50:32.074Z,4.77
2022-11-17T13:53:11.015Z,4.83
2022-11-17T13:55:37.766Z,5.13
2022-11-17T13:58:05.479Z,4.90
2022-11-17T14:00:32.307Z,4.53
2022-11-17T14:03:00.741Z,5.00
2022-11-17T14:05:28.304Z,4.97
2022-11-17T14:07:56.986Z,4.63
2022-11-17T14:10:31.507Z,4.87
2022-11-17T14:13:01.321Z,4.93
2022-11-17T14:15:41.998Z,4.83
2022-11-17T14:18:56.728Z,4.90
2022-11-17T14:21:23.433Z,4.57
2022-11-17T14:23:52.641Z,5.53
2022-11-17T14:26:23.449Z,5.00
2022-11-17T14:28:50.928Z,5.00
2022-11-17T14:31:18.052Z,4.53
2022-11-17T14:33:44.819Z,5.07
2022-11-17T14:36:19.500Z,4.70
2022-11-17T14:38:46.428Z,4.80
2022-11-17T14:41:15.439Z,5.50
2022-11-17T14:43:42.432Z,5.67
2022-11-17T14:46:21.808Z,5.80
2022-11-17T14:48:50.751Z,5.47
2022-11-17T14:51:18.698Z,5.80
2022-11-17T14:53:50.140Z,5.50
2022-11-17T14:56:20.448Z,5.30
2022-11-17T14:58:48.793Z,14.77
2022-11-17T15:01:20.101Z,6.27
2022-11-17T15:03:46.960Z,6.07
2022-11-17T15:06:19.569Z,5.97
2022-11-17T15:08:47.580Z,6.60
2022-11-17T15:11:16.195Z,6.40
2022-11-17T15:13:43.487Z,6.10
2022-11-17T15:16:10.242Z,6.60
2022-11-17T15:18:39.184Z,7.40
2022-11-17T15:21:09.862Z,6.27
2022-11-17T15:23:37.535Z,6.70
2022-11-17T15:26:08.874Z,6.60
2022-11-17T15:28:35.650Z,7.60
2022-11-17T15:31:10.102Z,7.10
2022-11-17T15:33:37.582Z,6.73
2022-11-17T15:36:05.097Z,6.70
2022-11-17T15:38:33.034Z,8.20
2022-11-17T15:41:00.173Z,7.60
2022-11-17T15:43:31.494Z,8.00
2022-11-17T15:46:05.511Z,8.03
2022-11-17T15:48:32.962Z,7.53
2022-11-17T15:51:00.449Z,7.83
2022-11-17T15:53:32.193Z,8.13
2022-11-17T15:56:08.728Z,7.97
2022-11-17T15:58:35.761Z,8.97
2022-11-17T16:01:12.555Z,8.90
2022-11-17T16:03:45.224Z,9.33
2022-11-17T16:06:17.145Z,8.80
2022-11-17T16:08:43.884Z,7.80
2022-11-17T16:11:13.133Z,8.90
2022-11-17T16:13:39.968Z,7.47
2022-11-17T16:16:07.327Z,7.77
2022-11-17T16:18:39.142Z,7.90
2022-11-17T16:21:12.348Z,7.20
2022-11-17T16:23:42.810Z,6.80
2022-11-17T16:26:10.531Z,6.33
2022-11-17T16:28:37.820Z,6.60
2022-11-17T16:31:20.628Z,6.07
2022-11-17T16:33:53.955Z,6.37
2022-11-17T16:36:21.883Z,6.10
2022-11-17T16:39:00.687Z,6.50
2022-11-17T16:41:29.810Z,6.40
2022-11-17T16:43:56.791Z,6.40
2022-11-17T16:46:27.049Z,5.70
2022-11-17T16:48:56.226Z,6.60
2022-11-17T16:51:25.179Z,6.63
2022-11-17T16:54:06.869Z,6.33
2022-11-17T16:56:33.909Z,5.87
2022-11-17T16:59:02.938Z,6.50
2022-11-17T17:01:34.621Z,6.77
2022-11-17T17:04:04.966Z,7.27
2022-11-17T17:06:31.711Z,7.77
2022-11-17T17:09:00.276Z,7.40
2022-11-17T17:11:29.198Z,6.70
2022-11-17T17:13:58.685Z,7.23
2022-11-17T17:16:27.644Z,7.47
2022-11-17T17:19:02.030Z,7.03
2022-11-17T17:21:31.351Z,7.30
2022-11-17T17:24:00.417Z,7.03
2022-11-17T17:26:30.412Z,7.10
2022-11-17T17:28:58.211Z,6.80
2022-11-17T17:31:25.466Z,6.43
2022-11-17T17:33:55.110Z,6.37
2022-11-17T17:36:24.863Z,6.70
2022-11-17T17:38:57.133Z,7.17
2022-11-17T17:41:25.561Z,6.63
2022-11-17T17:44:00.200Z,9.37
2022-11-17T17:46:29.709Z,7.87
2022-11-17T17:48:56.612Z,7.00
2022-11-17T17:51:26.331Z,6.80
2022-11-17T17:53:54.174Z,6.33
2022-11-17T17:56:21.212Z,6.27
2022-11-17T17:58:49.004Z,7.07
2022-11-17T18:01:19.838Z,7.20
2022-11-17T18:03:48.113Z,7.43
2022-11-17T18:06:18.439Z,7.47
2022-11-17T18:08:47.527Z,7.43
2022-11-17T18:11:19.417Z,7.83
2022-11-17T18:13:49.923Z,8.60
2022-11-17T18:16:21.742Z,8.30
2022-11-17T18:18:48.804Z,9.23
2022-11-17T18:21:17.090Z,9.87
2022-11-17T18:23:43.884Z,9.83
2022-11-17T18:26:31.956Z,10.47
2022-11-17T18:29:05.045Z,9.73
2022-11-17T18:31:34.938Z,9.27
2022-11-17T18:34:05.844Z,10.43
2022-11-17T18:36:32.650Z,10.97
2022-11-17T18:38:59.424Z,11.37
2022-11-17T18:41:26.570Z,10.73
2022-11-17T18:43:54.412Z,10.33
2022-11-17T18:46:22.397Z,10.37
2022-11-17T18:48:51.998Z,9.77
2022-11-17T18:51:23.114Z,9.97
2022-11-17T18:53:51.575Z,10.43
2022-11-17T18:56:25.969Z,9.70
2022-11-17T18:58:54.943Z,9.83
2022-11-17T19:01:25.857Z,10.37
2022-11-17T19:03:53.868Z,10.67
2022-11-17T19:06:22.459Z,10.40
2022-11-17T19:08:49.405Z,11.50
2022-11-17T19:11:18.707Z,10.37
2022-11-17T19:13:48.027Z,11.67
2022-11-17T19:16:25.231Z,11.57
2022-11-17T19:18:53.444Z,11.70
2022-11-17T19:21:26.092Z,11.93
2022-11-17T19:23:53.496Z,11.70
2022-11-17T19:26:30.157Z,12.37
2022-11-17T19:29:01.558Z,12.03
2022-11-17T19:31:30.749Z,12.00
2022-11-17T19:33:57.895Z,11.57
2022-11-17T19:36:25.445Z,11.67
2022-11-17T19:38:52.843Z,11.27
2022-11-17T19:41:23.355Z,12.40
2022-11-17T19:43:55.874Z,11.20
2022-11-17T19:46:25.660Z,11.97
2022-11-17T19:48:52.552Z,12.50
2022-11-17T19:51:20.428Z,11.40
2022-11-17T19:53:54.204Z,12.30
2022-11-17T19:56:21.621Z,12.60
2022-11-17T19:58:49.811Z,13.40
2022-11-17T20:01:23.362Z,13.60
2022-11-17T20:03:50.293Z,12.33
2022-11-17T20:06:18.549Z,11.60
2022-11-17T20:08:45.592Z,12.77
2022-11-17T20:11:17.265Z,12.23
2022-11-17T20:13:44.334Z,12.47
2022-11-17T20:16:13.721Z,13.80
2022-11-17T20:18:41.894Z,11.57
2022-11-17T20:21:08.999Z,12.03
2022-11-17T20:23:38.954Z,11.17
2022-11-17T20:26:12.475Z,11.40
2022-11-17T20:28:41.913Z,11.93
2022-11-17T20:31:12.033Z,11.33
2022-11-17T20:33:39.232Z,12.20
2022-11-17T20:36:11.701Z,11.87
2022-11-17T20:38:41.039Z,12.10
2022-11-17T20:41:07.820Z,11.87
2022-11-17T20:43:37.098Z,11.80
2022-11-17T20:46:03.945Z,13.30
2022-11-17T20:48:35.297Z,13.47
2022-11-17T20:51:05.967Z,11.50
2022-11-17T20:53:32.879Z,11.70
2022-11-17T20:56:00.470Z,12.03
2022-11-17T20:58:27.325Z,11.90
2022-11-17T21:00:54.234Z,11.00
2022-11-17T21:03:23.597Z,11.70
2022-11-17T21:05:59.031Z,11.57
2022-11-17T21:08:26.846Z,11.60
2022-11-17T21:10:57.333Z,11.33
2022-11-17T21:13:26.850Z,11.63
2022-11-17T21:16:08.082Z,10.87
2022-11-17T21:18:35.041Z,10.50
2022-11-17T21:21:04.532Z,11.10
2022-11-17T21:23:31.278Z,11.50
2022-11-17T21:26:09.865Z,11.37
2022-11-17T21:28:42.137Z,10.97
2022-11-17T21:31:14.464Z,11.43
2022-11-17T21:33:41.264Z,12.40
2022-11-17T21:36:12.691Z,11.37
2022-11-17T21:38:42.405Z,11.63
2022-11-17T21:41:13.314Z,11.83
2022-11-17T21:43:40.723Z,12.27
2022-11-17T21:46:12.469Z,12.77
2022-11-17T21:48:41.827Z,11.80
2022-11-17T21:51:18.063Z,12.00
2022-11-17T21:53:44.857Z,12.77
2022-11-17T21:56:11.890Z,12.33
2022-11-17T21:58:38.631Z,13.60
2022-11-17T22:01:14.922Z,13.07
2022-11-17T22:03:44.211Z,12.73
2022-11-17T22:06:20.119Z,13.20
2022-11-17T22:08:47.400Z,14.00
2022-11-17T22:11:37.849Z,12.93
2022-11-17T22:14:08.140Z,12.60
2022-11-17T22:16:36.173Z,13.40
2022-11-17T22:19:03.151Z,13.40
2022-11-17T22:21:29.983Z,13.70
2022-11-17T22:23:56.821Z,12.90
2022-11-17T22:26:23.674Z,13.80
2022-11-17T22:28:54.543Z,13.70
2022-11-17T22:31:21.690Z,13.63
2022-11-17T22:33:50.983Z,13.47
2022-11-17T22:36:20.332Z,13.43
2022-11-17T22:38:49.761Z,13.50
2022-11-17T22:41:21.523Z,13.27
2022-11-17T22:43:51.907Z,13.00
2022-11-17T22:46:21.529Z,14.03
2022-11-17T22:48:48.283Z,28.17
2022-11-17T22:51:38.177Z,14.63
2022-11-17T22:54:09.807Z,13.60
2022-11-17T22:56:36.691Z,13.40
2022-11-17T22:59:03.505Z,14.53
2022-11-17T23:01:32.351Z,14.43
2022-11-17T23:03:59.070Z,13.43
2022-11-17T23:06:28.527Z,14.87
2022-11-17T23:08:55.799Z,14.03
2022-11-17T23:11:36.624Z,14.50
2022-11-17T23:14:04.338Z,16.97
2022-11-17T23:16:32.145Z,14.50
2022-11-17T23:18:58.854Z,14.33
2022-11-17T23:21:30.186Z,13.97
2022-11-17T23:23:59.066Z,14.70
2022-11-17T23:26:28.280Z,14.93
2022-11-17T23:28:55.415Z,16.97
2022-11-17T23:31:22.105Z,17.83
2022-11-17T23:33:51.377Z,19.23
2022-11-17T23:36:21.982Z,18.53
2022-11-17T23:38:49.116Z,18.40
2022-11-17T23:41:16.942Z,18.33
2022-11-17T23:43:43.731Z,17.23
2022-11-17T23:46:15.510Z,17.53
2022-11-17T23:48:47.382Z,20.60
2022-11-17T23:51:16.240Z,19.30
2022-11-17T23:53:43.099Z,19.00
2022-11-17T23:56:10.001Z,18.47
2022-11-17T23:58:37.118Z,17.90
